Airfield :
LOGIN :

Register | Disclaimer

   EN    FR    IT 

 










Legend :    VFR   Marginal VFR   IFR   Intensive IFR   Very Intensive IFR
Visi :
Ceiling :
>= 8 km
>= 3000ft
5 to 8 km
1000 to 3000 ft
1500m to 5 km
500 to 1000 ft
800 to 1500m
200 to 500 ft
< 800m
< 200 ft
Symbols :   Thunderstorms  Fog  Heavy snow  Heavy precipitations  Wind > 20 kt
SIGMETs :     Misc.  Thunderstorms  Icing  Turbulence  Mountain Waves  Volcanic Ashes







- Airport Elevation : 204 ft
- IATA code : AGF
- Download approach charts


LFBA - Agen

CURRENT METAR :
  • 261230Z AUTO 09008KT 040V140 CAVOK 17/06 Q1017 NOSIG

EXPIRED METARs :
  • 261200Z AUTO 09007KT 060V130 CAVOK 16/07 Q1017 NOSIG
  • 261130Z AUTO 12008KT CAVOK 15/07 Q1017 NOSIG
  • 261100Z AUTO 09007KT 070V130 CAVOK 14/08 Q1017 NOSIG
  • 261030Z AUTO 10006KT 070V140 CAVOK 13/07 Q1018 NOSIG
  • 261000Z AUTO 09006KT 070V140 CAVOK 12/07 Q1018 NOSIG

TAF TAF LFBA
Valid from the 26 at 12:00 until the 26 at 21:00 UTC


261100Z 2612/2621 12005KT CAVOK
No reported NOTAMs for that airfield.
1 SIGMET reported for the Bordeaux FIR (LFBB) :
 
Severe turbulence
LFBB SIGMET 2 VALID 261000/261400 LFPW
LFBB BORDEAUX FIR/UIR SEV TURB FCST WI N4545 W00145 - N4630 W00130 - N4545 E00300 - N4500 E00245 FL160/330 INTSF=



MET'MAP, your aeronautical weather chart ! - Copyright ORBIFLY December 2007 - Disclaimer

ORBIFLY MET'MAP TEAM :

Programming & Development : Alexandra Zaïnal
Concept & Development : Baudouin d'Aumeries
Co-Development & Prog : Marc-Olivier Méhu
Technical & hardware support : Manuel Goepfert

Contact : metmap@orbifly.com




SOURCES & CREDITS :

   NOAA